createdAt,value
2022-09-20T00:02:15.040Z,10.51
2022-09-20T00:08:53.253Z,10.63
2022-09-20T00:11:23.445Z,10.64
2022-09-20T00:13:56.870Z,10.46
2022-09-20T00:16:28.830Z,10.65
2022-09-20T00:18:58.481Z,10.44
2022-09-20T00:21:31.256Z,10.40
2022-09-20T00:24:01.307Z,10.48
2022-09-20T00:26:31.148Z,10.57
2022-09-20T00:28:59.250Z,10.50
2022-09-20T00:31:27.053Z,10.63
2022-09-20T00:34:17.912Z,10.45
2022-09-20T00:36:47.568Z,10.44
2022-09-20T00:39:18.056Z,10.49
2022-09-20T00:41:50.820Z,10.59
2022-09-20T00:48:31.728Z,10.67
2022-09-20T00:51:11.376Z,10.66
2022-09-20T00:53:47.699Z,10.57
2022-09-20T00:56:28.573Z,10.74
2022-09-20T00:59:10.745Z,10.86
2022-09-20T01:01:41.686Z,10.73
2022-09-20T01:05:27.994Z,10.89
2022-09-20T01:07:57.212Z,10.78
2022-09-20T01:10:26.940Z,10.87
2022-09-20T01:12:55.660Z,10.68
2022-09-20T01:16:15.110Z,10.88
2022-09-20T01:18:44.185Z,10.70
2022-09-20T01:21:13.506Z,10.69
2022-09-20T01:24:24.963Z,10.89
2022-09-20T01:27:11.955Z,10.88
2022-09-20T01:29:56.041Z,10.90
2022-09-20T01:32:40.364Z,10.86
2022-09-20T01:35:11.807Z,10.87
2022-09-20T01:37:59.332Z,10.63
2022-09-20T01:41:08.937Z,10.58
2022-09-20T01:44:31.059Z,10.79
2022-09-20T01:47:09.803Z,10.76
2022-09-20T01:49:52.207Z,10.76
2022-09-20T01:52:50.645Z,10.54
2022-09-20T01:55:25.804Z,10.74
2022-09-20T01:58:24.038Z,10.57
2022-09-20T02:01:13.139Z,10.73
2022-09-20T02:03:59.238Z,10.77
2022-09-20T02:06:52.604Z,10.75
2022-09-20T02:09:47.769Z,10.73
2022-09-20T02:12:35.929Z,10.72
2022-09-20T02:15:36.800Z,10.48
2022-09-20T02:18:43.959Z,10.56
2022-09-20T02:21:31.402Z,10.72
2022-09-20T02:24:21.248Z,10.72
2022-09-20T02:27:19.159Z,10.63
2022-09-20T02:29:58.515Z,10.77
2022-09-20T02:32:55.031Z,10.79
2022-09-20T02:35:38.962Z,10.82
2022-09-20T02:38:41.369Z,10.84
2022-09-20T02:41:11.794Z,10.88
2022-09-20T02:44:05.890Z,10.90
2022-09-20T02:46:45.955Z,10.82
2022-09-20T02:49:50.952Z,10.91
2022-09-20T02:52:32.794Z,10.72
2022-09-20T02:55:26.565Z,10.72
2022-09-20T02:58:10.848Z,10.86
2022-09-20T03:00:49.881Z,10.69
2022-09-20T03:03:41.206Z,10.88
2022-09-20T03:06:41.727Z,10.69
2022-09-20T03:09:31.393Z,10.66
2022-09-20T03:12:38.787Z,10.81
2022-09-20T03:15:22.484Z,10.79
2022-09-20T03:18:16.721Z,10.71
2022-09-20T03:21:05.763Z,10.90
2022-09-20T03:23:52.550Z,10.76
2022-09-20T03:26:48.854Z,10.84
2022-09-20T03:29:44.414Z,10.89
2022-09-20T03:32:40.596Z,10.92
2022-09-20T03:35:36.453Z,10.92
2022-09-20T03:38:18.859Z,10.91
2022-09-20T03:41:13.608Z,10.92
2022-09-20T03:44:02.371Z,10.95
2022-09-20T03:46:36.031Z,10.87
2022-09-20T03:49:19.923Z,10.82
2022-09-20T03:52:06.098Z,10.73
2022-09-20T03:54:55.129Z,10.88
2022-09-20T03:57:45.364Z,10.78
2022-09-20T04:00:34.345Z,10.80
2022-09-20T04:03:07.312Z,10.63
2022-09-20T04:05:34.818Z,10.89
2022-09-20T04:08:28.477Z,10.92
2022-09-20T04:11:25.260Z,10.90
2022-09-20T04:14:21.244Z,10.90
2022-09-20T04:17:41.892Z,10.86
2022-09-20T04:20:47.588Z,10.75
2022-09-20T04:23:52.022Z,10.93
2022-09-20T04:26:30.663Z,10.98
2022-09-20T04:29:14.730Z,11.04
2022-09-20T04:31:57.361Z,11.04
2022-09-20T04:35:01.513Z,10.88
2022-09-20T04:37:38.628Z,10.97
2022-09-20T04:40:32.251Z,10.95
2022-09-20T04:43:36.798Z,11.07
2022-09-20T04:46:04.886Z,11.06
2022-09-20T04:49:08.460Z,10.98
2022-09-20T04:52:14.130Z,10.85
2022-09-20T04:55:19.452Z,10.87
2022-09-20T04:58:12.153Z,10.72
2022-09-20T05:01:17.197Z,10.68
2022-09-20T05:04:12.597Z,10.87
2022-09-20T05:07:03.432Z,10.91
2022-09-20T05:09:48.743Z,10.95
2022-09-20T05:12:36.297Z,11.02
2022-09-20T05:15:41.467Z,11.09
2022-09-20T05:18:42.352Z,11.18
2022-09-20T05:21:46.782Z,11.44
2022-09-20T05:24:43.110Z,12.16
2022-09-20T05:27:23.464Z,12.28
2022-09-20T05:30:19.711Z,12.47
2022-09-20T05:33:22.322Z,12.44
2022-09-20T05:36:10.835Z,13.11
2022-09-20T05:40:15.805Z,13.15
2022-09-20T05:43:11.708Z,12.80
2022-09-20T05:46:16.642Z,12.56
2022-09-20T05:49:27.548Z,12.42
2022-09-20T05:53:27.620Z,12.21
2022-09-20T05:56:16.939Z,12.48
2022-09-20T05:59:23.755Z,12.64
2022-09-20T06:02:54.848Z,12.55
2022-09-20T06:07:32.367Z,12.39
2022-09-20T06:09:29.508Z,12.67
2022-09-20T06:12:19.189Z,12.75
2022-09-20T06:15:20.207Z,13.02
2022-09-20T06:18:08.183Z,12.75
2022-09-20T06:21:10.343Z,12.36
2022-09-20T06:23:42.907Z,12.30
2022-09-20T06:26:26.990Z,12.63
2022-09-20T06:29:04.351Z,13.14
2022-09-20T06:31:33.973Z,13.64
2022-09-20T06:34:09.203Z,13.56
2022-09-20T06:37:06.251Z,13.31
2022-09-20T06:40:11.255Z,13.40
2022-09-20T06:42:44.763Z,13.47
2022-09-20T06:45:23.919Z,13.43
2022-09-20T06:47:54.631Z,13.22
2022-09-20T06:50:24.995Z,13.28
2022-09-20T06:52:57.622Z,13.22
2022-09-20T06:55:35.136Z,13.19
2022-09-20T06:58:08.569Z,13.18
2022-09-20T07:00:40.460Z,13.46
2022-09-20T07:03:11.043Z,13.79
2022-09-20T07:05:39.607Z,14.11
2022-09-20T07:08:12.848Z,14.47
2022-09-20T07:10:43.682Z,14.71
2022-09-20T07:13:26.737Z,14.77
2022-09-20T07:16:04.143Z,14.55
2022-09-20T07:18:47.970Z,14.45
2022-09-20T07:21:19.515Z,14.59
2022-09-20T07:23:55.285Z,14.48
2022-09-20T07:26:28.036Z,14.60
2022-09-20T07:29:00.871Z,14.22
2022-09-20T07:31:36.823Z,14.21
2022-09-20T07:34:36.602Z,14.02
2022-09-20T07:37:05.378Z,13.83
2022-09-20T07:39:35.138Z,13.65
2022-09-20T07:42:07.397Z,13.52
2022-09-20T07:44:34.832Z,13.75
2022-09-20T07:47:05.970Z,13.56
2022-09-20T07:49:33.398Z,13.42
2022-09-20T07:52:05.397Z,13.37
2022-09-20T07:54:32.963Z,13.55
2022-09-20T07:57:00.397Z,14.16
2022-09-20T07:59:35.636Z,14.57
2022-09-20T08:02:06.314Z,14.85
2022-09-20T08:05:54.631Z,16.49
2022-09-20T08:08:28.457Z,17.74
2022-09-20T08:11:07.568Z,18.37
2022-09-20T08:17:02.065Z,18.00
2022-09-20T08:19:45.535Z,18.13
2022-09-20T08:22:17.894Z,17.69
2022-09-20T08:25:01.743Z,16.78
2022-09-20T08:27:56.844Z,16.54
2022-09-20T08:30:33.575Z,16.02
2022-09-20T08:33:13.729Z,15.29
2022-09-20T08:35:44.032Z,14.87
2022-09-20T08:41:36.399Z,14.67
2022-09-20T08:44:57.868Z,15.10
2022-09-20T08:47:40.532Z,14.97
2022-09-20T08:50:17.615Z,15.06
2022-09-20T08:53:02.898Z,15.18
2022-09-20T08:55:37.742Z,15.00
2022-09-20T08:58:24.834Z,14.84
2022-09-20T09:01:03.282Z,14.36
2022-09-20T09:03:34.626Z,14.57
2022-09-20T09:09:47.606Z,14.31
2022-09-20T09:12:27.218Z,14.28
2022-09-20T09:15:06.645Z,14.48
2022-09-20T09:17:48.832Z,14.48
2022-09-20T09:20:24.290Z,14.48
2022-09-20T09:23:09.300Z,14.40
2022-09-20T09:25:41.034Z,14.36
2022-09-20T09:28:15.455Z,14.39
2022-09-20T09:30:47.907Z,14.38
2022-09-20T09:33:34.205Z,14.27
2022-09-20T09:36:18.928Z,14.34
2022-09-20T09:38:58.071Z,14.17
2022-09-20T09:41:37.184Z,14.07
2022-09-20T09:44:21.950Z,14.21
2022-09-20T09:47:02.763Z,14.10
2022-09-20T09:49:36.687Z,14.11
2022-09-20T09:52:24.867Z,14.07
2022-09-20T09:55:06.339Z,14.08
2022-09-20T09:57:56.043Z,14.13
2022-09-20T10:00:27.610Z,13.87
2022-09-20T10:02:56.948Z,14.07
2022-09-20T10:05:47.463Z,14.03
2022-09-20T10:08:55.202Z,13.89
2022-09-20T10:11:40.421Z,14.12
2022-09-20T10:14:24.968Z,14.31
2022-09-20T10:17:27.009Z,14.24
2022-09-20T10:20:15.406Z,14.33
2022-09-20T10:23:30.449Z,14.49
2022-09-20T10:26:42.961Z,14.34
2022-09-20T10:29:26.594Z,14.28
2022-09-20T10:32:17.708Z,14.59
2022-09-20T10:35:06.456Z,15.44
2022-09-20T10:38:12.394Z,15.47
2022-09-20T10:41:09.437Z,15.41
2022-09-20T10:43:46.016Z,15.27
2022-09-20T10:46:39.624Z,15.28
2022-09-20T10:49:25.213Z,15.69
2022-09-20T10:52:22.135Z,15.47
2022-09-20T10:55:11.771Z,15.44
2022-09-20T10:57:57.972Z,15.04
2022-09-20T11:00:39.498Z,14.81
2022-09-20T11:03:13.801Z,14.70
2022-09-20T11:05:47.311Z,14.48
2022-09-20T11:08:56.703Z,14.34
2022-09-20T11:11:42.151Z,14.45
2022-09-20T11:14:19.630Z,14.40
2022-09-20T11:16:57.061Z,14.53
2022-09-20T11:19:34.186Z,14.66
2022-09-20T11:22:19.572Z,14.71
2022-09-20T11:25:29.430Z,14.61
2022-09-20T11:28:25.880Z,14.41
2022-09-20T11:31:22.770Z,14.47
2022-09-20T11:34:10.790Z,14.41
2022-09-20T11:37:17.258Z,14.12
2022-09-20T11:40:00.479Z,14.10
2022-09-20T11:42:39.571Z,13.89
2022-09-20T11:45:40.936Z,14.14
2022-09-20T11:48:25.326Z,14.14
2022-09-20T11:51:06.169Z,14.30
2022-09-20T11:53:56.667Z,14.38
2022-09-20T11:56:28.250Z,14.44
2022-09-20T11:59:00.079Z,14.90
2022-09-20T12:01:34.932Z,14.85
2022-09-20T12:04:33.941Z,14.92
2022-09-20T12:07:27.086Z,14.96
2022-09-20T12:10:22.829Z,15.54
2022-09-20T12:12:58.061Z,15.79
2022-09-20T12:15:32.218Z,15.82
2022-09-20T12:18:26.848Z,15.34
2022-09-20T12:21:18.241Z,14.84
2022-09-20T12:24:09.895Z,15.25
2022-09-20T12:26:47.295Z,15.34
2022-09-20T12:29:23.986Z,15.13
2022-09-20T12:31:56.053Z,14.61
2022-09-20T12:34:26.596Z,14.36
2022-09-20T12:37:06.852Z,14.35
2022-09-20T12:39:40.377Z,14.17
2022-09-20T12:42:13.003Z,14.48
2022-09-20T12:45:09.524Z,14.80
2022-09-20T12:47:56.960Z,15.17
2022-09-20T12:50:47.370Z,15.11
2022-09-20T12:53:21.793Z,14.64
2022-09-20T12:56:13.296Z,14.43
2022-09-20T12:58:48.838Z,14.63
2022-09-20T13:01:40.388Z,14.55
2022-09-20T13:05:22.256Z,14.50
2022-09-20T13:07:44.234Z,14.25
2022-09-20T13:10:22.696Z,14.25
2022-09-20T13:12:55.740Z,14.18
2022-09-20T13:15:23.881Z,13.95
2022-09-20T13:17:56.699Z,13.82
2022-09-20T13:20:31.394Z,13.84
2022-09-20T13:23:00.736Z,13.68
2022-09-20T13:25:29.687Z,13.71
2022-09-20T13:28:53.806Z,13.71
2022-09-20T13:31:26.745Z,13.63
2022-09-20T13:33:55.426Z,13.54
2022-09-20T13:36:27.613Z,13.51
2022-09-20T13:38:57.656Z,13.53
2022-09-20T13:41:29.792Z,13.51
2022-09-20T13:46:44.842Z,13.52
2022-09-20T13:49:21.013Z,13.64
2022-09-20T13:51:49.914Z,13.53
2022-09-20T13:54:30.050Z,13.54
2022-09-20T13:57:12.700Z,13.46
2022-09-20T13:59:45.651Z,13.59
2022-09-20T14:02:38.747Z,13.53
2022-09-20T14:05:17.342Z,13.60
2022-09-20T14:07:47.152Z,13.66
2022-09-20T14:10:57.224Z,13.72
2022-09-20T14:13:24.764Z,13.63
2022-09-20T14:15:52.292Z,13.54
2022-09-20T14:18:31.791Z,13.51
2022-09-20T14:21:02.535Z,13.64
2022-09-20T14:23:43.883Z,13.54
2022-09-20T14:26:17.046Z,13.60
2022-09-20T14:28:49.043Z,13.40
2022-09-20T14:31:24.832Z,13.32
2022-09-20T14:33:58.057Z,13.40
2022-09-20T14:36:40.858Z,13.53
2022-09-20T14:43:28.715Z,13.36
2022-09-20T14:46:07.070Z,13.32
2022-09-20T14:48:40.480Z,13.36
2022-09-20T14:51:19.293Z,13.32
2022-09-20T14:54:13.840Z,13.26
2022-09-20T14:56:57.817Z,13.34
2022-09-20T14:59:27.531Z,13.17
2022-09-20T15:02:06.066Z,13.23
2022-09-20T15:04:37.987Z,13.03
2022-09-20T15:07:15.459Z,13.03
2022-09-20T15:09:43.098Z,13.16
2022-09-20T15:12:19.684Z,13.15
2022-09-20T15:14:55.205Z,13.19
2022-09-20T15:17:22.796Z,13.12
2022-09-20T15:19:50.476Z,13.03
2022-09-20T15:22:17.936Z,13.09
2022-09-20T15:24:49.910Z,13.09
2022-09-20T15:27:19.755Z,13.07
2022-09-20T15:29:47.405Z,13.06
2022-09-20T15:32:17.405Z,13.17
2022-09-20T15:34:50.090Z,12.96
2022-09-20T15:37:19.929Z,12.87
2022-09-20T15:39:48.599Z,13.07
2022-09-20T15:42:16.035Z,12.80
2022-09-20T15:44:44.514Z,12.80
2022-09-20T15:47:15.951Z,12.68
2022-09-20T15:49:46.832Z,12.78
2022-09-20T15:52:14.156Z,12.67
2022-09-20T15:54:41.735Z,12.74
2022-09-20T15:57:09.332Z,12.70
2022-09-20T15:59:36.732Z,12.67
2022-09-20T16:02:04.537Z,12.59
2022-09-20T16:04:35.238Z,12.52
2022-09-20T16:07:03.968Z,12.45
2022-09-20T16:09:35.157Z,12.44
2022-09-20T16:12:06.258Z,12.28
2022-09-20T16:14:34.972Z,12.37
2022-09-20T16:17:03.157Z,12.21
2022-09-20T16:19:30.896Z,12.35
2022-09-20T16:22:00.688Z,12.39
2022-09-20T16:24:31.542Z,12.26
2022-09-20T16:27:01.060Z,12.28
2022-09-20T16:29:30.646Z,12.31
2022-09-20T16:31:58.958Z,12.24
2022-09-20T16:34:37.946Z,12.28
2022-09-20T16:37:12.185Z,12.17
2022-09-20T16:39:42.093Z,12.13
2022-09-20T16:42:12.655Z,12.08
2022-09-20T16:44:43.466Z,12.19
2022-09-20T16:47:18.514Z,11.89
2022-09-20T16:49:48.650Z,11.93
2022-09-20T16:52:15.903Z,12.08
2022-09-20T16:54:46.105Z,12.08
2022-09-20T16:57:14.794Z,11.99
2022-09-20T16:59:45.575Z,11.95
2022-09-20T17:02:17.960Z,11.90
2022-09-20T17:04:47.668Z,11.82
2022-09-20T17:07:15.158Z,11.74
2022-09-20T17:09:45.257Z,11.75
2022-09-20T17:12:13.992Z,11.71
2022-09-20T17:14:44.080Z,11.76
2022-09-20T17:17:13.028Z,11.87
2022-09-20T17:19:40.421Z,11.90
2022-09-20T17:22:09.403Z,11.74
2022-09-20T17:24:37.085Z,11.66
2022-09-20T17:27:05.526Z,11.76
2022-09-20T17:29:36.109Z,11.69
2022-09-20T17:32:04.481Z,11.74
2022-09-20T17:34:34.753Z,11.67
2022-09-20T17:37:04.566Z,11.58
2022-09-20T17:39:31.920Z,11.72
2022-09-20T17:41:59.351Z,11.73
2022-09-20T17:44:35.498Z,11.71
2022-09-20T17:47:04.907Z,11.58
2022-09-20T17:49:32.435Z,11.65
2022-09-20T17:52:01.628Z,11.69
2022-09-20T17:54:33.279Z,11.57
2022-09-20T17:57:02.871Z,11.61
2022-09-20T17:59:34.553Z,11.61
2022-09-20T18:02:01.969Z,11.28
2022-09-20T18:04:29.550Z,11.37
2022-09-20T18:06:56.972Z,11.28
2022-09-20T18:09:27.353Z,11.25
2022-09-20T18:11:55.929Z,11.22
2022-09-20T18:14:25.959Z,11.31
2022-09-20T18:16:58.253Z,11.24
2022-09-20T18:19:33.077Z,11.31
2022-09-20T18:22:02.673Z,11.36
2022-09-20T18:24:32.734Z,11.29
2022-09-20T18:27:01.194Z,11.37
2022-09-20T18:29:36.932Z,11.28
2022-09-20T18:32:06.501Z,11.03
2022-09-20T18:35:34.132Z,11.11
2022-09-20T18:38:05.327Z,10.94
2022-09-20T18:40:35.949Z,10.97
2022-09-20T18:43:09.608Z,10.85
2022-09-20T18:45:52.867Z,10.71
2022-09-20T18:49:43.241Z,10.77
2022-09-20T18:52:45.778Z,10.55
2022-09-20T18:55:29.044Z,10.60
2022-09-20T19:02:08.917Z,10.66
2022-09-20T19:05:18.901Z,10.62
2022-09-20T19:08:37.657Z,10.41
2022-09-20T19:11:15.478Z,10.40
2022-09-20T19:14:00.952Z,10.50
2022-09-20T19:16:42.071Z,10.37
2022-09-20T19:19:19.435Z,10.43
2022-09-20T19:28:19.332Z,10.31
2022-09-20T19:30:56.460Z,10.06
2022-09-20T19:33:28.223Z,10.07
2022-09-20T19:35:59.520Z,10.21
2022-09-20T19:38:48.214Z,10.22
2022-09-20T19:41:49.374Z,10.18
2022-09-20T19:44:29.074Z,10.14
2022-09-20T19:47:32.278Z,9.94
2022-09-20T19:50:18.130Z,10.04
2022-09-20T19:52:46.227Z,9.90
2022-09-20T19:55:15.667Z,9.70
2022-09-20T19:57:47.266Z,9.65
2022-09-20T20:00:18.854Z,9.69
2022-09-20T20:02:47.284Z,9.76
2022-09-20T20:09:50.719Z,9.84
2022-09-20T20:12:49.196Z,9.84
2022-09-20T20:15:45.560Z,9.70
2022-09-20T20:18:41.610Z,9.79
2022-09-20T20:21:22.323Z,9.54
2022-09-20T20:23:52.642Z,9.77
2022-09-20T20:26:21.178Z,9.67
2022-09-20T20:28:55.032Z,9.62
2022-09-20T20:31:23.215Z,9.65
2022-09-20T20:33:51.864Z,9.60
2022-09-20T20:36:19.465Z,9.58
2022-09-20T20:38:50.052Z,9.38
2022-09-20T20:41:21.333Z,9.54
2022-09-20T20:43:57.397Z,9.36
2022-09-20T20:46:26.022Z,9.43
2022-09-20T20:48:53.804Z,9.43
2022-09-20T20:51:23.077Z,9.45
2022-09-20T20:54:00.961Z,9.36
2022-09-20T20:56:30.334Z,9.42
2022-09-20T20:59:35.376Z,9.55
2022-09-20T21:02:07.694Z,9.54
2022-09-20T21:04:39.556Z,9.42
2022-09-20T21:07:07.855Z,9.42
2022-09-20T21:09:37.795Z,9.40
2022-09-20T21:12:06.729Z,9.40
2022-09-20T21:14:35.576Z,9.40
2022-09-20T21:17:03.078Z,9.08
2022-09-20T21:19:30.421Z,9.24
2022-09-20T21:21:57.899Z,9.18
2022-09-20T21:24:28.093Z,9.08
2022-09-20T21:26:55.992Z,9.05
2022-09-20T21:29:23.456Z,9.04
2022-09-20T21:31:50.959Z,9.06
2022-09-20T21:34:18.355Z,9.07
2022-09-20T21:36:45.651Z,9.12
2022-09-20T21:39:13.419Z,9.20
2022-09-20T21:41:41.435Z,9.01
2022-09-20T21:44:15.195Z,9.28
2022-09-20T21:46:42.919Z,9.11
2022-09-20T21:49:12.253Z,9.13
2022-09-20T21:51:45.383Z,9.08
2022-09-20T21:54:16.436Z,9.12
2022-09-20T21:56:46.110Z,9.19
2022-09-20T21:59:13.580Z,8.94
2022-09-20T22:01:41.418Z,8.92
2022-09-20T22:04:15.259Z,8.99
2022-09-20T22:06:44.441Z,8.98
2022-09-20T22:09:16.509Z,8.79
2022-09-20T22:11:46.329Z,8.91
2022-09-20T22:14:18.771Z,8.94
2022-09-20T22:16:47.870Z,9.01
2022-09-20T22:19:18.850Z,9.01
2022-09-20T22:21:51.568Z,8.87
2022-09-20T22:25:10.188Z,8.91
2022-09-20T22:27:37.716Z,8.85
2022-09-20T22:30:07.731Z,8.65
2022-09-20T22:32:38.435Z,8.68
2022-09-20T22:35:06.225Z,8.63
2022-09-20T22:37:33.779Z,8.65
2022-09-20T22:40:01.106Z,8.84
2022-09-20T22:42:28.357Z,8.79
2022-09-20T22:44:56.257Z,8.68
2022-09-20T22:47:26.533Z,8.88
2022-09-20T22:49:54.555Z,8.80
2022-09-20T22:53:00.224Z,8.71
2022-09-20T22:56:02.069Z,8.67
2022-09-20T23:03:18.627Z,8.63
2022-09-20T23:05:47.001Z,8.57
2022-09-20T23:08:14.420Z,8.70
2022-09-20T23:10:41.699Z,8.80
2022-09-20T23:13:08.895Z,8.63
2022-09-20T23:15:38.351Z,8.57
2022-09-20T23:18:05.671Z,8.75
2022-09-20T23:20:33.681Z,8.67
2022-09-20T23:23:00.877Z,8.55
2022-09-20T23:25:29.218Z,8.59
2022-09-20T23:27:56.646Z,8.64
2022-09-20T23:30:24.298Z,8.41
2022-09-20T23:32:54.199Z,8.58
2022-09-20T23:35:21.744Z,8.42
2022-09-20T23:37:49.091Z,8.33
2022-09-20T23:40:16.498Z,8.46
2022-09-20T23:42:43.740Z,8.49
2022-09-20T23:45:12.187Z,8.41
2022-09-20T23:47:39.468Z,8.47
2022-09-20T23:50:07.849Z,8.33
2022-09-20T23:52:35.626Z,8.27
2022-09-20T23:55:04.488Z,8.42
2022-09-20T23:57:34.119Z,8.45
